Airfield :
LOGIN :

Register | Disclaimer

   EN    FR    IT 

 










Legend :    VFR   Marginal VFR   IFR   Intensive IFR   Very Intensive IFR
Visi :
Ceiling :
>= 8 km
>= 3000ft
5 to 8 km
1000 to 3000 ft
1500m to 5 km
500 to 1000 ft
800 to 1500m
200 to 500 ft
< 800m
< 200 ft
Symbols :   Thunderstorms  Fog  Heavy snow  Heavy precipitations  Wind > 20 kt
SIGMETs :     Misc.  Thunderstorms  Icing  Turbulence  Mountain Waves  Volcanic Ashes







- Airport Elevation : 538 ft
- IATA code : TNF
- Download approach charts


LFPN - Toussus Le Noble

CURRENT METAR :
  • 170730Z AUTO 22011KT 6000 -RA BKN012 BKN024 BKN033 18/16 Q1017 NOSIG

EXPIRED METARs :
  • 170700Z AUTO 22013KT 9999 FEW021 BKN068 OVC100 18/15 Q1017 TEMPO BKN010
  • 170630Z AUTO 22012KT CAVOK 18/15 Q1017 TEMPO BKN010
  • 170600Z AUTO 21012KT CAVOK 17/14 Q1017 NOSIG
  • 170530Z AUTO 21011KT CAVOK 16/14 Q1017 NOSIG
  • 170500Z AUTO 21010KT CAVOK 16/14 Q1017

TAF TAF LFPN
Valid from the 17 at 06:00 until the 17 at 15:00 UTC


170500Z 1706/1715 20010KT CAVOK
TEMPO 1708/1712 BKN010
PROB40
TEMPO 1712/1715 4000 SHRA BKN012 SCT025TCU
PROB30
TEMPO 1714/1715 SCT020CB
ATIS : +33 1 39 56 54 70
No reported NOTAMs for that airfield.



MET'MAP, your aeronautical weather chart ! - Copyright ORBIFLY December 2007 - Disclaimer

ORBIFLY MET'MAP TEAM :

Programming & Development : Alexandra Zaïnal
Concept & Development : Baudouin d'Aumeries
Co-Development & Prog : Marc-Olivier Méhu
Technical & hardware support : Manuel Goepfert

Contact : metmap@orbifly.com




SOURCES & CREDITS :

   NOAA